createdAt,value
2019-05-10T00:01:53.605Z,89.24
2019-05-10T00:04:40.477Z,89.38
2019-05-10T00:07:27.577Z,89.51
2019-05-10T00:09:56.204Z,89.59
2019-05-10T00:12:27.275Z,89.75
2019-05-10T00:14:55.984Z,89.82
2019-05-10T00:17:25.456Z,89.91
2019-05-10T00:19:54.826Z,89.97
2019-05-10T00:22:24.143Z,90.06
2019-05-10T00:25:03.969Z,90.13
2019-05-10T00:27:26.461Z,90.18
2019-05-10T00:29:55.843Z,90.36
2019-05-10T00:32:25.282Z,90.51
2019-05-10T00:34:54.755Z,90.53
2019-05-10T00:37:24.225Z,90.49
2019-05-10T00:39:53.645Z,90.50
2019-05-10T00:42:23.114Z,90.49
2019-05-10T00:44:52.512Z,90.42
2019-05-10T00:47:22.002Z,90.41
2019-05-10T00:49:51.488Z,90.38
2019-05-10T00:52:20.897Z,90.46
2019-05-10T00:54:50.250Z,90.53
2019-05-10T00:57:19.833Z,90.57
2019-05-10T00:59:49.288Z,90.66
2019-05-10T01:02:18.688Z,90.69
2019-05-10T01:05:31.594Z,90.65
2019-05-10T01:08:01.057Z,90.72
2019-05-10T01:10:30.563Z,90.94
2019-05-10T01:13:03.333Z,91.11
2019-05-10T01:15:32.884Z,91.17
2019-05-10T01:18:02.405Z,91.20
2019-05-10T01:20:31.956Z,91.24
2019-05-10T01:23:01.382Z,91.20
2019-05-10T01:25:34.974Z,91.05
2019-05-10T01:28:01.471Z,91.03
2019-05-10T01:30:31.459Z,91.14
2019-05-10T01:33:01.055Z,91.18
2019-05-10T01:35:33.594Z,91.22
2019-05-10T01:38:03.280Z,91.20
2019-05-10T01:40:32.904Z,91.26
2019-05-10T01:43:02.389Z,91.41
2019-05-10T01:45:31.907Z,91.46
2019-05-10T01:48:01.424Z,91.46
2019-05-10T01:50:30.775Z,91.45
2019-05-10T01:53:00.307Z,91.39
2019-05-10T01:55:29.885Z,91.35
2019-05-10T01:57:59.601Z,91.39
2019-05-10T02:00:29.029Z,91.34
2019-05-10T02:02:58.578Z,91.22
2019-05-10T02:05:28.034Z,91.11
2019-05-10T02:07:57.441Z,91.08
2019-05-10T02:10:26.923Z,91.17
2019-05-10T02:12:56.330Z,91.36
2019-05-10T02:15:25.690Z,91.46
2019-05-10T02:17:55.409Z,91.62
2019-05-10T02:20:24.874Z,91.63
2019-05-10T02:22:55.136Z,91.55
2019-05-10T02:25:24.840Z,91.67
2019-05-10T02:27:54.388Z,91.75
2019-05-10T02:30:23.933Z,91.87
2019-05-10T02:32:53.454Z,92.02
2019-05-10T02:35:22.800Z,92.06
2019-05-10T02:37:52.405Z,92.18
2019-05-10T02:40:21.982Z,92.29
2019-05-10T02:42:51.475Z,92.39
2019-05-10T02:45:21.505Z,92.33
2019-05-10T02:47:51.225Z,92.26
2019-05-10T02:50:21.339Z,92.21
2019-05-10T02:52:50.688Z,92.17
2019-05-10T02:55:20.198Z,92.17
2019-05-10T02:57:49.906Z,92.26
2019-05-10T03:00:19.401Z,92.39
2019-05-10T03:02:48.955Z,92.52
2019-05-10T03:05:18.535Z,92.61
2019-05-10T03:07:48.071Z,92.68
2019-05-10T03:10:17.785Z,92.78
2019-05-10T03:12:48.754Z,92.87
2019-05-10T03:15:18.210Z,92.92
2019-05-10T03:17:47.638Z,93.00
2019-05-10T03:20:19.359Z,93.04
2019-05-10T03:22:49.053Z,93.04
2019-05-10T03:25:18.643Z,92.99
2019-05-10T03:27:48.182Z,92.95
2019-05-10T03:30:18.537Z,92.93
2019-05-10T03:32:48.568Z,92.78
2019-05-10T03:35:18.498Z,92.67
2019-05-10T03:37:48.522Z,92.48
2019-05-10T03:40:18.651Z,92.24
2019-05-10T03:42:48.956Z,92.02
2019-05-10T03:45:19.563Z,91.93
2019-05-10T03:47:50.363Z,91.90
2019-05-10T03:50:20.416Z,92.05
2019-05-10T03:52:52.268Z,92.20
2019-05-10T03:55:22.796Z,92.18
2019-05-10T03:57:53.142Z,92.09
2019-05-10T04:00:23.153Z,92.14
2019-05-10T04:02:53.863Z,92.27
2019-05-10T04:05:24.036Z,92.35
2019-05-10T04:07:54.257Z,92.44
2019-05-10T04:10:24.914Z,92.67
2019-05-10T04:12:55.144Z,92.95
2019-05-10T04:15:25.504Z,93.20
2019-05-10T04:17:55.918Z,93.46
2019-05-10T04:20:26.408Z,93.68
2019-05-10T04:22:56.850Z,93.90
2019-05-10T04:25:26.930Z,94.10
2019-05-10T04:27:57.142Z,94.20
2019-05-10T04:30:31.527Z,94.26
2019-05-10T04:33:32.144Z,94.25
2019-05-10T04:36:02.451Z,94.26
2019-05-10T04:38:32.830Z,94.22
2019-05-10T04:41:03.489Z,94.11
2019-05-10T04:43:34.191Z,93.97
2019-05-10T04:46:04.608Z,93.74
2019-05-10T04:48:35.298Z,93.51
2019-05-10T04:51:05.608Z,93.28
2019-05-10T04:53:36.571Z,93.00
2019-05-10T04:56:06.944Z,92.79
2019-05-10T04:58:37.251Z,92.63
2019-05-10T05:01:08.039Z,92.53
2019-05-10T05:03:38.563Z,92.55
2019-05-10T05:06:08.639Z,92.44
2019-05-10T05:08:39.746Z,92.41
2019-05-10T05:11:09.080Z,92.35
2019-05-10T05:13:39.375Z,92.26
2019-05-10T05:16:09.910Z,92.25
2019-05-10T05:18:40.012Z,92.21
2019-05-10T05:21:10.434Z,92.19
2019-05-10T05:23:40.458Z,92.06
2019-05-10T05:26:10.501Z,91.93
2019-05-10T05:28:40.921Z,91.61
2019-05-10T05:31:11.446Z,91.16
2019-05-10T05:33:41.786Z,90.76
2019-05-10T05:36:12.370Z,90.35
2019-05-10T05:38:47.306Z,89.97
2019-05-10T05:41:14.932Z,89.85
2019-05-10T05:43:46.290Z,89.81
2019-05-10T05:46:17.193Z,89.62
2019-05-10T05:48:47.364Z,89.47
2019-05-10T05:51:17.464Z,88.92
2019-05-10T05:53:47.894Z,88.65
2019-05-10T05:56:18.148Z,88.19
2019-05-10T05:58:48.134Z,88.18
2019-05-10T06:01:26.525Z,88.28
2019-05-10T06:03:50.967Z,87.41
2019-05-10T06:06:22.331Z,87.29
2019-05-10T06:08:54.624Z,87.17
2019-05-10T06:11:24.125Z,87.19
2019-05-10T06:13:54.945Z,87.35
2019-05-10T06:16:25.682Z,86.56
2019-05-10T06:18:55.726Z,85.40
2019-05-10T06:21:26.845Z,84.48
2019-05-10T06:23:59.416Z,83.50
2019-05-10T06:26:29.674Z,83.56
2019-05-10T06:29:04.241Z,80.94
2019-05-10T06:31:32.010Z,80.77
2019-05-10T06:34:02.193Z,80.25
2019-05-10T06:36:32.915Z,81.15
2019-05-10T06:39:03.951Z,80.20
2019-05-10T06:41:33.552Z,81.34
2019-05-10T06:44:03.899Z,82.23
2019-05-10T06:46:34.239Z,81.63
2019-05-10T06:49:08.287Z,81.26
2019-05-10T06:51:36.533Z,81.65
2019-05-10T06:54:07.084Z,81.51
2019-05-10T06:56:37.458Z,81.44
2019-05-10T06:59:13.522Z,81.76
2019-05-10T07:01:45.614Z,81.10
2019-05-10T07:04:11.747Z,80.13
2019-05-10T07:06:41.900Z,79.10
2019-05-10T07:30:42.606Z,82.78
2019-05-10T07:33:13.099Z,61.06
2019-05-10T07:35:43.576Z,59.44
2019-05-10T07:38:13.865Z,58.60
2019-05-10T07:40:44.185Z,57.87
2019-05-10T07:43:24.823Z,58.56
2019-05-10T07:45:45.831Z,59.12
2019-05-10T07:48:15.780Z,59.76
2019-05-10T07:50:49.299Z,60.20
2019-05-10T07:53:22.782Z,60.24
2019-05-10T07:55:49.906Z,59.53
2019-05-10T07:58:19.974Z,60.74
2019-05-10T08:00:49.920Z,59.97
2019-05-10T08:03:23.727Z,60.01
2019-05-10T08:05:57.035Z,60.58
2019-05-10T08:08:23.529Z,60.23
2019-05-10T08:10:54.045Z,60.68
2019-05-10T08:13:25.309Z,60.76
2019-05-10T08:15:55.741Z,60.66
2019-05-10T08:18:26.462Z,59.93
2019-05-10T08:21:02.175Z,60.26
2019-05-10T08:23:29.369Z,60.14
2019-05-10T08:25:59.691Z,59.71
2019-05-10T08:28:34.180Z,58.60
2019-05-10T08:31:02.480Z,59.22
2019-05-10T08:33:32.894Z,59.18
2019-05-10T08:36:05.500Z,58.64
2019-05-10T08:38:39.516Z,59.10
2019-05-10T08:41:08.267Z,59.30
2019-05-10T08:43:40.242Z,58.86
2019-05-10T08:46:11.992Z,58.84
2019-05-10T08:48:50.341Z,59.25
2019-05-10T08:51:14.859Z,58.78
2019-05-10T08:53:47.056Z,58.00
2019-05-10T08:56:21.681Z,58.91
2019-05-10T08:58:48.634Z,58.74
2019-05-10T09:01:26.611Z,58.35
2019-05-10T09:03:55.033Z,58.71
